HUY weather

Humberside Airport
Grimsby, England, United Kingdom

Public forecast

Using degrees Celsius for public forecast. Weather courtesy of forecast.io.

METAR (pilot weather report)

Retrieved 2018/06/20 16:20 UTC (0 seconds ago):

EGNJ 201620Z 28013KT 9999 SCT028 BKN043 21/12 Q1017

TAF (pilot weather forecast)

Forecast is more than 12 hours old.

Retrieved 2016/01/23 12:00 UTC (2 years ago):

TAF EGNJ 231059Z 2312/2321 22012KT 9999 FEW035 PROB30 2316/2319 BKN014 BECMG 2319/2321 BKN012 TEMPO 2319/2321 6000 RA BKN008